Ashley, North Dakota
Current Conditions -  °F | °C
As of 12:55 PM on Friday 21 Nov 2014 (Local Time) from K7L2 Reporting Station
Clear Clear  
Wind Chill: 30°   Ceiling: Unl
Heat Index: 36°   Visibility: 10mi
Dew Point: 27°   Wind: 7mph
Humidity: 70%   Direction: 200°SSW
Pressure: 29.75"   Gusts: NA
Location:  46.03°N, 99.37°W
Report Text: K7L2 211855Z AUTO 20006KT 10SM CLR 02/M03 A2975 RMK AO2
Loading
Personal Weather Stations






























Interactive Weather Map New forecast layout! Learn more

10-Day Weather Forecast

Advertisements
Track Severe Weather on mobile